createdAt,value
2023-01-15T00:08:18.453Z,28.08
2023-01-15T00:18:20.224Z,32.00
2023-01-15T00:28:23.155Z,26.48
2023-01-15T00:38:24.863Z,26.05
2023-01-15T00:48:32.659Z,24.50
2023-01-15T00:58:34.341Z,24.65
2023-01-15T01:08:38.016Z,25.73
2023-01-15T01:18:43.127Z,23.70
2023-01-15T01:28:50.444Z,23.75
2023-01-15T01:49:23.154Z,20.00
2023-01-15T01:59:26.549Z,23.17
2023-01-15T02:09:28.727Z,21.47
2023-01-15T02:19:43.249Z,22.85
2023-01-15T02:30:11.876Z,20.45
2023-01-15T02:40:16.431Z,20.55
2023-01-15T02:50:25.578Z,19.13
2023-01-15T03:00:34.220Z,21.50
2023-01-15T03:10:54.325Z,20.52
2023-01-15T03:21:03.304Z,18.23
2023-01-15T03:31:05.442Z,22.58
2023-01-15T03:41:37.425Z,21.20
2023-01-15T03:52:15.838Z,19.70
2023-01-15T04:02:20.934Z,18.98
2023-01-15T04:12:23.871Z,22.13
2023-01-15T04:22:25.997Z,18.92
2023-01-15T04:32:27.843Z,18.30
2023-01-15T04:42:48.184Z,18.15
2023-01-15T04:52:51.833Z,16.50
2023-01-15T05:02:55.239Z,19.10
2023-01-15T05:12:56.973Z,17.00
2023-01-15T05:22:58.712Z,16.50
2023-01-15T05:33:00.882Z,17.73
2023-01-15T05:43:07.677Z,16.48
2023-01-15T05:53:09.355Z,15.77
2023-01-15T06:03:16.704Z,16.38
2023-01-15T06:13:20.639Z,18.48
2023-01-15T06:23:25.005Z,17.38
2023-01-15T06:33:26.966Z,17.13
2023-01-15T06:43:47.934Z,16.23
2023-01-15T06:53:49.991Z,16.10
2023-01-15T07:03:53.881Z,15.27
2023-01-15T07:14:07.782Z,17.15
2023-01-15T07:24:13.474Z,16.42
2023-01-15T07:34:17.621Z,16.98
2023-01-15T07:44:41.356Z,17.00
2023-01-15T07:54:47.452Z,18.37
2023-01-15T08:04:50.121Z,19.90
2023-01-15T08:15:10.833Z,19.77
2023-01-15T08:25:16.062Z,20.27
2023-01-15T08:35:24.502Z,19.63
2023-01-15T08:45:30.405Z,21.23
2023-01-15T08:55:33.200Z,19.25
2023-01-15T09:05:39.708Z,19.98
2023-01-15T09:15:43.474Z,18.02
2023-01-15T09:25:56.152Z,18.00
2023-01-15T09:35:58.056Z,13.30
2023-01-15T09:46:15.468Z,14.90
2023-01-15T09:56:23.960Z,12.90
2023-01-15T10:06:35.663Z,13.30
2023-01-15T10:16:42.953Z,11.57
2023-01-15T10:26:57.715Z,11.75
2023-01-15T10:37:17.987Z,8.93
2023-01-15T10:47:26.604Z,10.50
2023-01-15T10:58:09.069Z,10.65
2023-01-15T11:09:07.322Z,8.70
2023-01-15T11:19:21.142Z,9.68
2023-01-15T11:29:34.086Z,9.05
2023-01-15T11:39:35.894Z,8.93
2023-01-15T11:49:56.185Z,10.18
2023-01-15T12:00:00.710Z,11.30
2023-01-15T12:10:43.356Z,11.20
2023-01-15T12:21:05.203Z,11.70
2023-01-15T12:31:43.963Z,11.98
2023-01-15T12:42:13.737Z,12.82
2023-01-15T12:52:29.615Z,13.68
2023-01-15T13:03:15.784Z,12.57
2023-01-15T13:13:29.057Z,13.95
2023-01-15T13:24:12.169Z,13.33
2023-01-15T13:34:23.405Z,12.50
2023-01-15T13:44:32.867Z,11.43
2023-01-15T13:54:41.875Z,13.20
2023-01-15T14:04:45.073Z,12.95
2023-01-15T14:15:17.993Z,12.27
2023-01-15T14:25:39.026Z,11.40
2023-01-15T14:35:46.226Z,12.20
2023-01-15T14:45:52.946Z,11.68
2023-01-15T14:56:21.495Z,13.60
2023-01-15T15:06:25.784Z,13.30
2023-01-15T15:16:31.886Z,13.68
2023-01-15T15:26:37.409Z,14.88
2023-01-15T15:36:39.784Z,14.13
2023-01-15T15:47:08.782Z,14.57
2023-01-15T15:57:19.646Z,15.00
2023-01-15T16:07:28.432Z,15.13
2023-01-15T16:17:31.003Z,17.58
2023-01-15T16:27:36.383Z,21.42
2023-01-15T16:37:54.213Z,19.92
2023-01-15T16:48:13.376Z,20.13
2023-01-15T16:58:32.378Z,20.48
2023-01-15T17:08:40.104Z,21.15
2023-01-15T17:18:42.699Z,20.42
2023-01-15T17:28:46.338Z,22.33
2023-01-15T17:38:53.140Z,24.70
2023-01-15T17:48:55.665Z,23.95
2023-01-15T17:59:16.974Z,24.30
2023-01-15T18:09:24.662Z,27.50
2023-01-15T18:19:28.721Z,28.08
2023-01-15T18:29:32.329Z,26.73
2023-01-15T18:39:37.613Z,27.30
2023-01-15T18:49:49.116Z,24.88
2023-01-15T18:59:52.674Z,25.25
2023-01-15T19:09:57.925Z,27.20
2023-01-15T19:20:02.732Z,28.58
2023-01-15T19:30:08.644Z,30.75
2023-01-15T19:40:23.624Z,32.72
2023-01-15T19:50:36.105Z,33.35
2023-01-15T20:00:40.572Z,38.85
2023-01-15T20:10:48.836Z,34.65
2023-01-15T20:21:05.329Z,36.72
2023-01-15T20:31:14.729Z,37.15
2023-01-15T20:41:43.554Z,35.72
2023-01-15T20:51:49.796Z,32.58
2023-01-15T21:01:54.902Z,33.28
2023-01-15T21:12:01.211Z,29.90
2023-01-15T21:22:11.949Z,28.88
2023-01-15T21:32:15.948Z,27.67
2023-01-15T21:42:39.670Z,28.55
2023-01-15T21:52:41.992Z,28.37
2023-01-15T22:02:43.864Z,29.13
2023-01-15T22:12:49.839Z,30.20
2023-01-15T22:22:51.677Z,31.17
2023-01-15T22:32:53.383Z,30.52
2023-01-15T22:42:57.731Z,32.97
2023-01-15T22:52:59.434Z,34.47
2023-01-15T23:03:05.501Z,32.40
2023-01-15T23:13:08.354Z,31.13
2023-01-15T23:23:10.119Z,30.10
2023-01-15T23:33:12.405Z,29.38
2023-01-15T23:43:36.031Z,27.65
2023-01-15T23:53:39.162Z,29.47
